createdAt,value
2022-08-05T00:00:00.255Z,98864.06
2022-08-05T00:02:27.810Z,98862.59
2022-08-05T00:04:56.256Z,98865.44
2022-08-05T00:07:59.762Z,98865.53
2022-08-05T00:10:11.294Z,98871.91
2022-08-05T00:12:55.914Z,98862.25
2022-08-05T00:15:55.550Z,98864.25
2022-08-05T00:18:21.274Z,98869.78
2022-08-05T00:20:49.244Z,98865.41
2022-08-05T00:23:16.450Z,98862.88
2022-08-05T00:25:46.136Z,98855.75
2022-08-05T00:28:14.089Z,98861.16
2022-08-05T00:30:44.079Z,98860.41
2022-08-05T00:33:15.679Z,98858.63
2022-08-05T00:36:16.062Z,98858.72
2022-08-05T00:38:45.538Z,98855.22
2022-08-05T00:41:13.527Z,98850.75
2022-08-05T00:43:46.863Z,98851.69
2022-08-05T00:46:16.032Z,98855.09
2022-08-05T00:48:51.362Z,98854.25
2022-08-05T00:51:51.194Z,98850.75
2022-08-05T00:54:07.470Z,98853.63
2022-08-05T00:56:34.626Z,98853.63
2022-08-05T00:59:02.164Z,98857.22
2022-08-05T01:01:48.754Z,98851.06
2022-08-05T01:04:20.394Z,98856.38
2022-08-05T01:06:55.035Z,98856.28
2022-08-05T01:09:22.711Z,98853.50
2022-08-05T01:11:52.297Z,98848.19
2022-08-05T01:14:44.647Z,98846.69
2022-08-05T01:17:23.355Z,98843.16
2022-08-05T01:20:03.792Z,98844.28
2022-08-05T01:22:57.347Z,98837.38
2022-08-05T01:25:53.686Z,98842.06
2022-08-05T01:28:51.915Z,98843.84
2022-08-05T01:31:45.429Z,98831.53
2022-08-05T01:34:42.586Z,98840.25
2022-08-05T01:37:36.998Z,98842.16
2022-08-05T01:40:12.777Z,98839.28
2022-08-05T01:42:41.577Z,98840.16
2022-08-05T01:45:09.910Z,98835.56
2022-08-05T01:47:39.846Z,98829.41
2022-08-05T01:50:15.679Z,98834.72
2022-08-05T01:52:50.164Z,98833.13
2022-08-05T01:55:20.844Z,98837.69
2022-08-05T01:58:29.495Z,98834.94
2022-08-05T02:00:39.648Z,98840.88
2022-08-05T02:03:24.333Z,98844.28
2022-08-05T02:05:57.823Z,98840.97
2022-08-05T02:08:29.022Z,98843.53
2022-08-05T02:11:08.048Z,98836.63
2022-08-05T02:13:53.529Z,98839.47
2022-08-05T02:16:27.633Z,98831.78
2022-08-05T02:19:00.147Z,98827.44
2022-08-05T02:21:38.016Z,98819.03
2022-08-05T02:24:18.724Z,98832.31
2022-08-05T02:26:56.604Z,98827.31
2022-08-05T02:30:00.052Z,98823.06
2022-08-05T02:32:23.938Z,98824.94
2022-08-05T02:35:02.163Z,98818.97
2022-08-05T02:37:42.761Z,98822.03
2022-08-05T02:40:17.144Z,98815.19
2022-08-05T02:42:52.792Z,98820.50
2022-08-05T02:45:24.020Z,98817.97
2022-08-05T02:48:06.577Z,98817.22
2022-08-05T02:50:38.344Z,98810.31
2022-08-05T02:53:11.779Z,98821.13
2022-08-05T02:55:55.079Z,98808.25
2022-08-05T02:58:28.964Z,98814.41
2022-08-05T03:01:01.764Z,98809.19
2022-08-05T03:03:34.158Z,98808.44
2022-08-05T03:06:56.650Z,98807.50
2022-08-05T03:09:05.986Z,98801.13
2022-08-05T03:11:56.548Z,98805.38
2022-08-05T03:14:22.297Z,98801.69
2022-08-05T03:16:49.594Z,98802.53
2022-08-05T03:19:33.738Z,98807.75
2022-08-05T03:22:04.915Z,98802.44
2022-08-05T03:24:46.923Z,98805.09
2022-08-05T03:27:14.516Z,98806.69
2022-08-05T03:29:45.705Z,98811.63
2022-08-05T03:32:31.415Z,98804.28
2022-08-05T03:34:59.584Z,98805.69
2022-08-05T03:37:27.759Z,98796.13
2022-08-05T03:39:59.433Z,98797.22
2022-08-05T03:42:32.859Z,98792.56
2022-08-05T03:45:21.464Z,98791.31
2022-08-05T03:47:50.676Z,98790.13
2022-08-05T03:50:18.811Z,98795.06
2022-08-05T03:55:51.687Z,98792.84
2022-08-05T03:56:12.103Z,98788.94
2022-08-05T03:58:46.808Z,98787.47
2022-08-05T04:01:20.724Z,98788.66
2022-08-05T04:04:09.862Z,98791.31
2022-08-05T04:06:37.789Z,98782.63
2022-08-05T04:09:08.785Z,98794.94
2022-08-05T04:11:47.082Z,98788.66
2022-08-05T04:14:17.846Z,98795.13
2022-08-05T04:16:45.582Z,98791.78
2022-08-05T04:19:13.344Z,98792.72
2022-08-05T04:22:05.187Z,98798.16
2022-08-05T04:24:28.630Z,98787.38
2022-08-05T04:26:58.064Z,98795.31
2022-08-05T04:29:25.174Z,98797.84
2022-08-05T04:31:54.296Z,98796.19
2022-08-05T04:34:32.385Z,98799.97
2022-08-05T04:37:00.835Z,98800.69
2022-08-05T04:39:31.412Z,98799.09
2022-08-05T04:41:59.348Z,98803.31
2022-08-05T04:44:30.006Z,98799.09
2022-08-05T04:46:59.286Z,98796.66
2022-08-05T04:49:38.836Z,98787.75
2022-08-05T04:52:15.155Z,98784.41
2022-08-05T04:54:42.083Z,98788.88
2022-08-05T04:57:09.028Z,98793.06
2022-08-05T04:59:38.983Z,98784.69
2022-08-05T05:02:36.541Z,98789.00
2022-08-05T05:05:02.728Z,98782.63
2022-08-05T05:07:32.878Z,98786.69
2022-08-05T05:10:06.246Z,98789.69
2022-08-05T05:12:33.555Z,98791.69
2022-08-05T05:15:03.747Z,98785.00
2022-08-05T05:17:56.566Z,98787.19
2022-08-05T05:20:28.743Z,98793.66
2022-08-05T05:23:08.011Z,98787.25
2022-08-05T05:25:41.032Z,98788.94
2022-08-05T05:28:09.713Z,98788.47
2022-08-05T05:30:39.321Z,98792.25
2022-08-05T05:33:16.602Z,98792.97
2022-08-05T05:35:46.936Z,98794.13
2022-08-05T05:38:26.860Z,98789.16
2022-08-05T05:40:57.574Z,98794.88
2022-08-05T05:43:54.767Z,98793.13
2022-08-05T05:46:17.598Z,98794.66
2022-08-05T05:48:48.200Z,98789.78
2022-08-05T05:51:23.269Z,98790.81
2022-08-05T05:53:57.775Z,98788.25
2022-08-05T05:56:33.138Z,98789.19
2022-08-05T05:59:05.847Z,98788.06
2022-08-05T06:01:37.551Z,98781.66
2022-08-05T06:04:12.003Z,98789.38
2022-08-05T06:06:42.658Z,98783.75
2022-08-05T06:09:17.094Z,98777.38
2022-08-05T06:11:59.066Z,98786.84
2022-08-05T06:14:28.119Z,98784.09
2022-08-05T06:16:57.094Z,98773.22
2022-08-05T06:19:33.902Z,98778.00
2022-08-05T06:22:04.692Z,98770.88
2022-08-05T06:24:34.954Z,98780.22
2022-08-05T06:27:04.092Z,98770.75
2022-08-05T06:29:49.650Z,98778.44
2022-08-05T06:32:26.217Z,98782.00
2022-08-05T06:34:59.179Z,98775.22
2022-08-05T06:37:39.412Z,98779.84
2022-08-05T06:40:18.503Z,98779.03
2022-08-05T06:42:52.722Z,98775.69
2022-08-05T06:45:44.811Z,98775.84
2022-08-05T06:48:35.970Z,98777.88
2022-08-05T06:50:56.201Z,98770.78
2022-08-05T06:53:28.290Z,98766.34
2022-08-05T06:56:00.038Z,98768.28
2022-08-05T06:58:29.904Z,98766.78
2022-08-05T07:01:03.732Z,98763.88
2022-08-05T07:03:32.545Z,98755.06
2022-08-05T07:06:06.137Z,98761.72
2022-08-05T07:08:43.226Z,98766.13
2022-08-05T07:11:16.038Z,98770.94
2022-08-05T07:14:02.942Z,98767.66
2022-08-05T07:18:00.087Z,98770.50
2022-08-05T07:22:28.481Z,98774.75
2022-08-05T07:25:23.620Z,98769.00
2022-08-05T07:27:58.772Z,98766.44
2022-08-05T07:30:38.799Z,98774.72
2022-08-05T07:33:15.931Z,98771.06
2022-08-05T07:36:03.568Z,98760.56
2022-08-05T07:38:42.901Z,98760.31
2022-08-05T07:42:13.277Z,98760.91
2022-08-05T07:44:14.297Z,98770.03
2022-08-05T07:46:48.399Z,98758.25
2022-08-05T07:49:16.356Z,98763.13
2022-08-05T07:51:53.717Z,98768.50
2022-08-05T07:54:31.718Z,98780.69
2022-08-05T07:57:22.505Z,98774.44
2022-08-05T07:59:49.907Z,98763.56
2022-08-05T08:02:17.783Z,98765.94
2022-08-05T08:04:49.392Z,98761.44
2022-08-05T08:07:23.066Z,98765.72
2022-08-05T08:09:52.361Z,98761.47
2022-08-05T08:12:36.903Z,98772.38
2022-08-05T08:15:13.941Z,98764.88
2022-08-05T08:17:49.836Z,98767.25
2022-08-05T08:20:59.872Z,98771.28
2022-08-05T08:24:00.968Z,98781.56
2022-08-05T08:26:02.487Z,98760.56
2022-08-05T08:28:37.192Z,98759.63
2022-08-05T08:31:09.843Z,98757.47
2022-08-05T08:33:42.312Z,98763.03
2022-08-05T08:36:37.645Z,98758.31
2022-08-05T08:38:58.201Z,98752.41
2022-08-05T08:41:51.989Z,98752.78
2022-08-05T08:45:22.914Z,98758.16
2022-08-05T08:47:47.238Z,98757.97
2022-08-05T08:50:23.438Z,98749.47
2022-08-05T08:52:54.217Z,98759.72
2022-08-05T08:56:01.979Z,98753.59
2022-08-05T08:58:12.846Z,98763.63
2022-08-05T09:00:42.417Z,98751.81
2022-08-05T09:03:11.760Z,98754.31
2022-08-05T09:06:07.573Z,98744.75
2022-08-05T09:08:30.410Z,98746.00
2022-08-05T09:10:58.865Z,98750.59
2022-08-05T09:13:31.564Z,98741.75
2022-08-05T09:16:16.767Z,98725.78
2022-08-05T09:18:44.645Z,98726.78
2022-08-05T09:21:21.280Z,98725.88
2022-08-05T09:24:10.461Z,98723.53
2022-08-05T09:26:37.427Z,98726.50
2022-08-05T09:29:07.216Z,98720.63
2022-08-05T09:32:40.631Z,98713.00
2022-08-05T09:34:23.192Z,98708.59
2022-08-05T09:36:55.158Z,98717.91
2022-08-05T09:39:39.507Z,98710.78
2022-08-05T09:42:17.393Z,98705.81
2022-08-05T09:44:56.224Z,98710.34
2022-08-05T09:47:49.088Z,98706.59
2022-08-05T09:50:38.849Z,98715.28
2022-08-05T09:53:07.187Z,98701.69
2022-08-05T09:55:57.168Z,98705.97
2022-08-05T09:58:24.170Z,98712.78
2022-08-05T10:00:59.475Z,98703.75
2022-08-05T10:03:56.669Z,98714.03
2022-08-05T10:06:19.440Z,98702.53
2022-08-05T10:08:53.941Z,98696.44
2022-08-05T10:11:23.181Z,98692.38
2022-08-05T10:13:54.586Z,98691.66
2022-08-05T10:16:37.934Z,98687.00
2022-08-05T10:19:11.636Z,98690.88
2022-08-05T10:21:40.763Z,98690.38
2022-08-05T10:24:15.273Z,98690.31
2022-08-05T10:26:48.900Z,98688.97
2022-08-05T10:29:24.169Z,98686.19
2022-08-05T10:32:54.432Z,98680.88
2022-08-05T10:35:00.850Z,98687.25
2022-08-05T10:37:41.341Z,98678.56
2022-08-05T10:40:34.115Z,98677.59
2022-08-05T10:43:23.216Z,98670.84
2022-08-05T10:46:06.331Z,98665.41
2022-08-05T10:48:56.551Z,98671.22
2022-08-05T10:51:29.313Z,98661.44
2022-08-05T10:54:01.703Z,98662.69
2022-08-05T10:56:45.811Z,98663.19
2022-08-05T11:00:03.740Z,98663.44
2022-08-05T11:02:08.719Z,98655.22
2022-08-05T11:04:54.718Z,98650.97
2022-08-05T11:07:32.945Z,98653.75
2022-08-05T11:10:22.539Z,98653.81
2022-08-05T11:12:56.073Z,98646.72
2022-08-05T11:16:00.099Z,98645.63
2022-08-05T11:18:34.100Z,98643.66
2022-08-05T11:21:11.637Z,98648.13
2022-08-05T11:24:04.856Z,98654.63
2022-08-05T11:26:32.448Z,98651.88
2022-08-05T11:29:13.080Z,98656.59
2022-08-05T11:31:57.454Z,98653.63
2022-08-05T11:34:51.503Z,98652.22
2022-08-05T11:38:29.050Z,98651.56
2022-08-05T11:41:34.546Z,98649.22
2022-08-05T11:44:05.874Z,98647.19
2022-08-05T11:46:58.528Z,98647.75
2022-08-05T11:49:34.124Z,98642.34
2022-08-05T11:52:01.706Z,98641.75
2022-08-05T11:54:40.720Z,98632.91
2022-08-05T11:57:24.427Z,98628.25
2022-08-05T11:59:53.634Z,98626.47
2022-08-05T12:02:30.489Z,98618.19
2022-08-05T12:05:07.987Z,98623.25
2022-08-05T12:08:08.483Z,98630.28
2022-08-05T12:10:38.569Z,98624.50
2022-08-05T12:13:16.814Z,98627.53
2022-08-05T12:15:49.955Z,98619.78
2022-08-05T12:18:34.235Z,98621.47
2022-08-05T12:21:15.384Z,98624.94
2022-08-05T12:24:00.071Z,98621.19
2022-08-05T12:26:36.432Z,98615.91
2022-08-05T12:29:09.526Z,98618.78
2022-08-05T12:31:46.246Z,98626.03
2022-08-05T12:34:21.346Z,98622.28
2022-08-05T12:36:53.659Z,98615.59
2022-08-05T12:39:21.583Z,98609.03
2022-08-05T12:41:48.902Z,98609.97
2022-08-05T12:44:21.765Z,98602.66
2022-08-05T12:47:01.792Z,98591.38
2022-08-05T12:50:03.420Z,98607.94
2022-08-05T12:52:42.443Z,98597.09
2022-08-05T12:55:22.085Z,98591.22
2022-08-05T12:58:49.514Z,98590.22
2022-08-05T13:02:04.933Z,98591.19
2022-08-05T13:03:32.261Z,98589.78
2022-08-05T13:06:01.943Z,98591.91
2022-08-05T13:08:32.634Z,98590.69
2022-08-05T13:11:02.187Z,98585.69
2022-08-05T13:14:06.134Z,98581.38
2022-08-05T13:16:19.986Z,98574.63
2022-08-05T13:18:57.932Z,98569.06
2022-08-05T13:21:28.389Z,98575.25
2022-08-05T13:24:08.586Z,98587.94
2022-08-05T13:26:36.007Z,98584.06
2022-08-05T13:29:03.228Z,98583.94
2022-08-05T13:32:03.064Z,98576.31
2022-08-05T13:34:21.465Z,98572.00
2022-08-05T13:36:54.129Z,98566.69
2022-08-05T13:40:12.771Z,98575.19
2022-08-05T13:42:14.442Z,98568.50
2022-08-05T13:44:45.686Z,98561.25
2022-08-05T13:47:34.756Z,98565.00
2022-08-05T13:50:04.637Z,98561.81
2022-08-05T13:52:35.176Z,98556.50
2022-08-05T13:55:07.932Z,98554.22
2022-08-05T13:57:50.826Z,98549.59
2022-08-05T14:00:26.861Z,98543.75
2022-08-05T14:02:58.147Z,98553.09
2022-08-05T14:05:48.177Z,98548.22
2022-08-05T14:08:21.096Z,98548.84
2022-08-05T14:10:59.783Z,98552.56
2022-08-05T14:13:48.163Z,98545.41
2022-08-05T14:16:17.106Z,98546.16
2022-08-05T14:18:46.197Z,98535.97
2022-08-05T14:22:07.361Z,98529.84
2022-08-05T14:24:00.581Z,98535.50
2022-08-05T14:26:38.742Z,98530.34
2022-08-05T14:29:15.950Z,98534.81
2022-08-05T14:32:02.882Z,98527.75
2022-08-05T14:34:35.320Z,98530.34
2022-08-05T14:37:04.704Z,98525.97
2022-08-05T14:39:49.501Z,98528.56
2022-08-05T14:42:22.487Z,98529.09
2022-08-05T14:44:56.606Z,98521.56
2022-08-05T14:48:03.727Z,98523.84
2022-08-05T14:50:18.155Z,98519.59
2022-08-05T14:52:53.594Z,98524.84
2022-08-05T14:55:25.878Z,98521.94
2022-08-05T14:58:10.956Z,98526.16
2022-08-05T15:00:59.283Z,98515.44
2022-08-05T15:03:33.010Z,98516.50
2022-08-05T15:06:06.946Z,98519.75
2022-08-05T15:08:59.488Z,98517.13
2022-08-05T15:11:53.254Z,98517.00
2022-08-05T15:14:20.091Z,98501.34
2022-08-05T15:17:09.752Z,98506.03
2022-08-05T15:19:51.708Z,98500.81
2022-08-05T15:22:31.666Z,98492.22
2022-08-05T15:24:59.487Z,98489.50
2022-08-05T15:27:35.858Z,98484.66
2022-08-05T15:30:05.062Z,98482.75
2022-08-05T15:32:32.267Z,98487.84
2022-08-05T15:34:59.218Z,98486.81
2022-08-05T15:38:32.325Z,98495.00
2022-08-05T15:41:01.026Z,98484.09
2022-08-05T15:43:12.616Z,98496.44
2022-08-05T15:46:00.638Z,98486.19
2022-08-05T15:48:29.271Z,98486.69
2022-08-05T15:50:56.818Z,98484.00
2022-08-05T15:53:26.569Z,98489.88
2022-08-05T15:56:09.117Z,98493.66
2022-08-05T15:58:41.072Z,98495.56
2022-08-05T16:01:17.162Z,98497.63
2022-08-05T16:03:50.557Z,98486.53
2022-08-05T16:06:19.851Z,98498.31
2022-08-05T16:08:51.091Z,98499.75
2022-08-05T16:11:42.824Z,98496.22
2022-08-05T16:14:09.096Z,98497.75
2022-08-05T16:16:42.983Z,98491.69
2022-08-05T16:19:10.440Z,98496.94
2022-08-05T16:22:00.777Z,98487.31
2022-08-05T16:24:39.897Z,98490.06
2022-08-05T16:27:09.776Z,98493.00
2022-08-05T16:29:50.097Z,98489.44
2022-08-05T16:32:28.460Z,98505.41
2022-08-05T16:34:56.994Z,98492.00
2022-08-05T16:38:02.929Z,98482.38
2022-08-05T16:40:24.840Z,98488.03
2022-08-05T16:42:56.236Z,98493.28
2022-08-05T16:46:04.279Z,98486.78
2022-08-05T16:48:10.504Z,98493.50
2022-08-05T16:50:38.055Z,98486.38
2022-08-05T16:53:12.010Z,98492.81
2022-08-05T16:55:46.917Z,98492.00
2022-08-05T16:58:14.593Z,98494.06
2022-08-05T17:00:48.175Z,98490.72
2022-08-05T17:03:20.161Z,98489.22
2022-08-05T17:05:53.935Z,98500.53
2022-08-05T17:08:33.473Z,98494.81
2022-08-05T17:11:16.620Z,98497.28
2022-08-05T17:13:45.071Z,98499.13
2022-08-05T17:16:32.577Z,98497.84
2022-08-05T17:19:00.407Z,98503.47
2022-08-05T17:21:35.484Z,98494.47
2022-08-05T17:24:19.348Z,98499.84
2022-08-05T17:26:53.185Z,98499.34
2022-08-05T17:29:22.775Z,98508.69
2022-08-05T17:32:01.064Z,98514.50
2022-08-05T17:34:29.571Z,98509.03
2022-08-05T17:36:57.207Z,98513.25
2022-08-05T17:39:34.348Z,98514.91
2022-08-05T17:42:28.612Z,98513.72
2022-08-05T17:44:51.049Z,98520.72
2022-08-05T17:47:22.148Z,98517.19
2022-08-05T17:50:04.050Z,98513.75
2022-08-05T17:52:53.400Z,98513.81
2022-08-05T17:55:34.152Z,98510.91
2022-08-05T17:58:02.680Z,98512.81
2022-08-05T18:00:30.257Z,98514.19
2022-08-05T18:02:57.874Z,98502.88
2022-08-05T18:05:27.989Z,98513.56
2022-08-05T18:07:56.859Z,98516.63
2022-08-05T18:10:23.974Z,98509.72
2022-08-05T18:12:51.750Z,98508.84
2022-08-05T18:15:19.154Z,98513.53
2022-08-05T18:17:59.269Z,98509.31
2022-08-05T18:20:32.530Z,98519.59
2022-08-05T18:23:09.342Z,98522.59
2022-08-05T18:25:44.865Z,98521.03
2022-08-05T18:28:16.426Z,98519.25
2022-08-05T18:30:45.425Z,98523.72
2022-08-05T18:33:16.895Z,98517.19
2022-08-05T18:36:03.188Z,98518.28
2022-08-05T18:38:36.043Z,98534.50
2022-08-05T18:41:53.312Z,98528.47
2022-08-05T18:43:54.749Z,98530.19
2022-08-05T18:46:26.023Z,98523.13
2022-08-05T18:48:56.060Z,98532.75
2022-08-05T18:52:04.970Z,98523.31
2022-08-05T18:54:31.906Z,98523.13
2022-08-05T18:57:01.203Z,98531.00
2022-08-05T18:59:43.687Z,98528.47
2022-08-05T19:02:27.708Z,98532.00
2022-08-05T19:05:02.418Z,98535.34
2022-08-05T19:07:50.231Z,98537.47
2022-08-05T19:10:27.867Z,98530.69
2022-08-05T19:12:57.092Z,98529.16
2022-08-05T19:15:57.766Z,98532.16
2022-08-05T19:18:20.725Z,98541.34
2022-08-05T19:20:52.503Z,98540.78
2022-08-05T19:24:03.878Z,98535.50
2022-08-05T19:26:08.552Z,98547.03
2022-08-05T19:28:43.158Z,98545.31
2022-08-05T19:31:13.178Z,98552.47
2022-08-05T19:33:48.470Z,98551.56
2022-08-05T19:36:26.901Z,98550.50
2022-08-05T19:39:00.574Z,98552.09
2022-08-05T19:41:58.124Z,98545.84
2022-08-05T19:44:17.505Z,98551.00
2022-08-05T19:46:45.723Z,98556.16
2022-08-05T19:49:16.997Z,98551.38
2022-08-05T19:52:13.079Z,98552.00
2022-08-05T19:54:34.545Z,98551.22
2022-08-05T19:57:06.850Z,98557.78
2022-08-05T20:00:00.881Z,98550.31
2022-08-05T20:02:27.050Z,98545.03
2022-08-05T20:04:58.422Z,98545.63
2022-08-05T20:07:48.369Z,98544.25
2022-08-05T20:10:14.104Z,98548.84
2022-08-05T20:12:46.155Z,98546.03
2022-08-05T20:15:23.318Z,98547.34
2022-08-05T20:18:10.922Z,98548.78
2022-08-05T20:20:56.244Z,98548.22
2022-08-05T20:23:40.102Z,98549.69
2022-08-05T20:26:16.248Z,98550.81
2022-08-05T20:28:50.520Z,98546.91
2022-08-05T20:31:21.857Z,98552.53
2022-08-05T20:33:55.969Z,98547.63
2022-08-05T20:36:24.203Z,98556.38
2022-08-05T20:38:54.654Z,98548.63
2022-08-05T20:41:44.254Z,98549.91
2022-08-05T20:44:17.822Z,98545.81
2022-08-05T20:46:47.820Z,98559.13
2022-08-05T20:49:15.251Z,98561.25
2022-08-05T20:51:53.349Z,98560.84
2022-08-05T20:54:21.031Z,98554.34
2022-08-05T20:56:48.950Z,98541.38
2022-08-05T20:59:19.277Z,98543.97
2022-08-05T21:01:57.271Z,98544.53
2022-08-05T21:04:27.036Z,98549.75
2022-08-05T21:06:54.861Z,98548.31
2022-08-05T21:09:22.969Z,98556.63
2022-08-05T21:12:10.961Z,98543.78
2022-08-05T21:14:38.457Z,98554.22
2022-08-05T21:17:06.288Z,98555.53
2022-08-05T21:19:47.288Z,98562.28
2022-08-05T21:22:18.555Z,98559.19
2022-08-05T21:24:57.039Z,98556.09
2022-08-05T21:27:24.771Z,98556.22
2022-08-05T21:29:56.399Z,98563.53
2022-08-05T21:32:26.586Z,98554.50
2022-08-05T21:35:08.638Z,98557.59
2022-08-05T21:37:52.949Z,98556.91
2022-08-05T21:40:23.177Z,98557.31
2022-08-05T21:42:51.867Z,98561.97
2022-08-05T21:45:25.185Z,98555.06
2022-08-05T21:48:06.306Z,98554.75
2022-08-05T21:50:36.618Z,98553.38
2022-08-05T21:53:16.572Z,98555.47
2022-08-05T21:56:04.866Z,98553.75
2022-08-05T21:58:32.646Z,98549.66
2022-08-05T22:01:00.410Z,98556.41
2022-08-05T22:03:52.168Z,98543.88
2022-08-05T22:06:22.511Z,98547.91
2022-08-05T22:08:52.223Z,98547.34
2022-08-05T22:11:35.126Z,98546.19
2022-08-05T22:14:06.006Z,98553.22
2022-08-05T22:16:55.934Z,98549.84
2022-08-05T22:20:02.970Z,98544.66
2022-08-05T22:22:14.546Z,98556.31
2022-08-05T22:25:00.610Z,98553.03
2022-08-05T22:28:08.035Z,98553.44
2022-08-05T22:30:32.262Z,98550.94
2022-08-05T22:33:03.485Z,98548.38
2022-08-05T22:35:48.161Z,98549.78
2022-08-05T22:38:18.936Z,98547.50
2022-08-05T22:40:49.351Z,98552.16
2022-08-05T22:43:37.124Z,98549.59
2022-08-05T22:46:11.907Z,98547.31
2022-08-05T22:48:42.192Z,98535.91
2022-08-05T22:51:15.776Z,98539.44
2022-08-05T22:53:50.417Z,98550.09
2022-08-05T22:56:30.230Z,98542.78
2022-08-05T22:59:00.105Z,98542.78
2022-08-05T23:01:50.853Z,98538.41
2022-08-05T23:04:17.441Z,98541.22
2022-08-05T23:06:44.464Z,98538.56
2022-08-05T23:09:27.772Z,98545.13
2022-08-05T23:11:59.794Z,98546.97
2022-08-05T23:14:32.316Z,98545.84
2022-08-05T23:17:24.504Z,98545.00
2022-08-05T23:20:02.412Z,98540.63
2022-08-05T23:22:30.829Z,98542.47
2022-08-05T23:24:58.169Z,98536.53
2022-08-05T23:27:31.235Z,98535.69
2022-08-05T23:30:00.970Z,98540.91
2022-08-05T23:32:28.573Z,98537.78
2022-08-05T23:34:56.694Z,98543.06
2022-08-05T23:37:23.648Z,98539.94
2022-08-05T23:39:54.956Z,98535.13
2022-08-05T23:42:23.589Z,98531.97
2022-08-05T23:44:57.324Z,98531.38
2022-08-05T23:47:25.089Z,98527.16
2022-08-05T23:49:55.625Z,98528.38
2022-08-05T23:52:27.820Z,98529.63
2022-08-05T23:55:21.711Z,98527.72
2022-08-05T23:57:52.773Z,98528.00
